createdAt,value
2018-04-09T00:00:32.226Z,18.00
2018-04-09T00:01:05.494Z,17.90
2018-04-09T00:01:38.753Z,17.90
2018-04-09T00:02:12.010Z,17.90
2018-04-09T00:02:46.038Z,17.90
2018-04-09T00:03:19.338Z,17.90
2018-04-09T00:03:52.594Z,17.90
2018-04-09T00:04:25.869Z,17.90
2018-04-09T00:04:59.132Z,17.90
2018-04-09T00:05:33.157Z,17.90
2018-04-09T00:06:06.429Z,18.00
2018-04-09T00:06:39.732Z,17.90
2018-04-09T00:07:12.996Z,17.90
2018-04-09T00:07:46.250Z,18.00
2018-04-09T00:08:20.298Z,17.90
2018-04-09T00:08:53.566Z,17.90
2018-04-09T00:09:26.842Z,17.90
2018-04-09T00:10:00.207Z,17.90
2018-04-09T00:10:33.470Z,17.90
2018-04-09T00:11:06.735Z,17.80
2018-04-09T00:11:40.029Z,17.80
2018-04-09T00:12:13.298Z,17.80
2018-04-09T00:12:46.562Z,17.70
2018-04-09T00:13:19.840Z,17.70
2018-04-09T00:13:53.119Z,17.70
2018-04-09T00:14:26.390Z,17.80
2018-04-09T00:14:59.666Z,17.80
2018-04-09T00:15:32.923Z,17.80
2018-04-09T00:16:06.208Z,17.80
2018-04-09T00:16:40.236Z,17.70
2018-04-09T00:17:13.511Z,17.70
2018-04-09T00:17:46.992Z,17.70
2018-04-09T00:18:20.272Z,17.70
2018-04-09T00:18:54.339Z,17.70
2018-04-09T00:19:27.605Z,17.60
2018-04-09T00:20:00.882Z,17.70
2018-04-09T00:20:34.149Z,17.70
2018-04-09T00:21:07.414Z,17.70
2018-04-09T00:21:40.670Z,17.60
2018-04-09T00:22:13.943Z,17.60
2018-04-09T00:22:47.974Z,17.60
2018-04-09T00:23:21.238Z,17.60
2018-04-09T00:23:54.523Z,17.60
2018-04-09T00:24:27.790Z,17.60
2018-04-09T00:25:01.054Z,17.60
2018-04-09T00:25:34.314Z,17.60
2018-04-09T00:26:07.595Z,17.60
2018-04-09T00:26:40.905Z,17.50
2018-04-09T00:27:14.245Z,17.60
2018-04-09T00:27:47.520Z,17.60
2018-04-09T00:28:20.791Z,17.50
2018-04-09T00:28:54.825Z,17.60
2018-04-09T00:29:28.091Z,17.50
2018-04-09T00:30:01.344Z,17.60
2018-04-09T00:30:35.391Z,17.50
2018-04-09T00:31:08.651Z,17.50
2018-04-09T00:31:41.922Z,17.60
2018-04-09T00:32:15.203Z,17.50
2018-04-09T00:32:48.453Z,17.60
2018-04-09T00:33:22.490Z,17.50
2018-04-09T00:33:55.776Z,17.50
2018-04-09T00:34:29.054Z,17.50
2018-04-09T00:35:02.326Z,17.40
2018-04-09T00:35:35.583Z,17.40
2018-04-09T00:36:09.637Z,17.40
2018-04-09T00:36:42.905Z,17.40
2018-04-09T00:37:16.158Z,17.40
2018-04-09T00:37:49.419Z,17.40
2018-04-09T00:38:22.693Z,17.40
2018-04-09T00:38:56.743Z,17.50
2018-04-09T00:39:30.043Z,17.40
2018-04-09T00:40:03.297Z,17.50
2018-04-09T00:40:36.557Z,17.50
2018-04-09T00:41:09.816Z,17.50
2018-04-09T00:41:43.858Z,17.50
2018-04-09T00:42:17.118Z,17.50
2018-04-09T00:42:50.377Z,17.50
2018-04-09T00:43:24.413Z,17.40
2018-04-09T00:43:57.661Z,17.40
2018-04-09T00:44:30.938Z,17.40
2018-04-09T00:45:04.974Z,17.40
2018-04-09T00:45:38.243Z,17.40
2018-04-09T00:46:11.502Z,17.40
2018-04-09T00:46:44.765Z,17.40
2018-04-09T00:47:18.803Z,17.40
2018-04-09T00:47:52.071Z,17.40
2018-04-09T00:48:25.353Z,17.40
2018-04-09T00:48:58.606Z,17.40
2018-04-09T00:49:32.650Z,17.30
2018-04-09T00:50:05.926Z,17.30
2018-04-09T00:50:39.185Z,17.30
2018-04-09T00:51:12.445Z,17.30
2018-04-09T00:51:45.710Z,17.30
2018-04-09T00:52:18.975Z,17.30
2018-04-09T00:52:52.244Z,17.30
2018-04-09T00:53:37.445Z,17.20
2018-04-09T00:54:10.705Z,17.20
2018-04-09T00:54:43.987Z,17.10
2018-04-09T00:55:17.245Z,17.20
2018-04-09T00:55:50.506Z,17.10
2018-04-09T00:56:23.766Z,17.10
2018-04-09T00:56:57.038Z,17.20
2018-04-09T00:57:31.063Z,17.20
2018-04-09T00:58:04.329Z,17.10
2018-04-09T00:58:37.626Z,17.20
2018-04-09T00:59:10.889Z,17.20
2018-04-09T00:59:44.159Z,17.20
2018-04-09T01:00:18.200Z,17.20
2018-04-09T01:00:51.474Z,17.20
2018-04-09T01:01:25.493Z,17.20
2018-04-09T01:01:58.777Z,17.20
2018-04-09T01:02:32.033Z,17.20
2018-04-09T01:03:05.298Z,17.20
2018-04-09T01:03:38.558Z,17.20
2018-04-09T01:04:11.822Z,17.20
2018-04-09T01:04:45.885Z,17.20
2018-04-09T01:05:19.140Z,17.20
2018-04-09T01:05:52.429Z,17.20
2018-04-09T01:06:25.682Z,17.20
2018-04-09T01:06:58.950Z,17.20
2018-04-09T01:07:32.217Z,17.20
2018-04-09T01:08:06.246Z,17.20
2018-04-09T01:08:39.505Z,17.20
2018-04-09T01:09:12.774Z,17.20
2018-04-09T01:09:46.100Z,17.20
2018-04-09T01:10:19.384Z,17.20
2018-04-09T01:10:52.644Z,17.20
2018-04-09T01:11:26.162Z,17.20
2018-04-09T01:11:59.431Z,17.20
2018-04-09T01:12:32.686Z,17.20
2018-04-09T01:13:05.953Z,17.30
2018-04-09T01:13:39.226Z,17.20
2018-04-09T01:14:12.504Z,17.20
2018-04-09T01:14:46.533Z,17.20
2018-04-09T01:15:19.811Z,17.20
2018-04-09T01:15:53.088Z,17.20
2018-04-09T01:16:26.346Z,17.20
2018-04-09T01:16:59.604Z,17.20
2018-04-09T01:17:33.649Z,17.20
2018-04-09T01:18:06.894Z,17.20
2018-04-09T01:18:40.925Z,17.20
2018-04-09T01:19:14.200Z,17.20
2018-04-09T01:19:47.474Z,17.20
2018-04-09T01:20:20.751Z,17.20
2018-04-09T01:20:54.026Z,17.10
2018-04-09T01:21:27.289Z,17.20
2018-04-09T01:22:01.322Z,17.10
2018-04-09T01:22:34.581Z,17.10
2018-04-09T01:23:07.840Z,17.10
2018-04-09T01:23:41.870Z,17.10
2018-04-09T01:24:15.142Z,17.10
2018-04-09T01:24:48.402Z,17.10
2018-04-09T01:25:22.434Z,17.10
2018-04-09T01:25:55.702Z,17.10
2018-04-09T01:26:28.982Z,17.10
2018-04-09T01:27:02.234Z,17.10
2018-04-09T01:27:35.513Z,17.20
2018-04-09T01:28:08.791Z,17.20
2018-04-09T01:28:42.061Z,17.20
2018-04-09T01:29:15.321Z,17.20
2018-04-09T01:29:48.582Z,17.20
2018-04-09T01:30:21.849Z,17.20
2018-04-09T01:30:55.110Z,17.20
2018-04-09T01:31:28.390Z,17.20
2018-04-09T01:32:02.411Z,17.20
2018-04-09T01:32:35.690Z,17.20
2018-04-09T01:33:08.951Z,17.20
2018-04-09T01:33:42.209Z,17.20
2018-04-09T01:34:15.477Z,17.20
2018-04-09T01:34:48.729Z,17.20
2018-04-09T01:35:22.002Z,17.20
2018-04-09T01:35:55.281Z,17.20
2018-04-09T01:36:28.561Z,17.20
2018-04-09T01:37:01.838Z,17.20
2018-04-09T01:37:35.089Z,17.20
2018-04-09T01:38:08.358Z,17.20
2018-04-09T01:38:42.395Z,17.10
2018-04-09T01:39:15.648Z,17.10
2018-04-09T01:39:48.909Z,17.20
2018-04-09T01:40:22.956Z,17.10
2018-04-09T01:40:56.226Z,17.20
2018-04-09T01:41:29.477Z,17.20
2018-04-09T01:42:03.518Z,17.20
2018-04-09T01:42:36.772Z,17.20
2018-04-09T01:43:10.022Z,17.20
2018-04-09T01:43:44.048Z,17.20
2018-04-09T01:44:17.305Z,17.20
2018-04-09T01:44:50.570Z,17.10
2018-04-09T01:45:23.840Z,17.10
2018-04-09T01:45:57.140Z,17.20
2018-04-09T01:46:30.418Z,17.20
2018-04-09T01:47:03.695Z,17.20
2018-04-09T01:47:36.950Z,17.20
2018-04-09T01:48:10.300Z,17.20
2018-04-09T01:48:43.553Z,17.20
2018-04-09T01:49:17.098Z,17.20
2018-04-09T01:49:50.578Z,17.10
2018-04-09T01:50:23.848Z,17.10
2018-04-09T01:50:57.109Z,17.20
2018-04-09T01:51:30.389Z,17.10
2018-04-09T01:52:03.646Z,17.10
2018-04-09T01:52:36.902Z,17.10
2018-04-09T01:53:10.167Z,17.10
2018-04-09T01:53:43.431Z,17.10
2018-04-09T01:54:16.701Z,17.10
2018-04-09T01:54:49.965Z,17.10
2018-04-09T01:55:23.234Z,17.10
2018-04-09T01:55:56.497Z,17.10
2018-04-09T01:56:29.804Z,17.10
2018-04-09T01:57:03.071Z,17.10
2018-04-09T01:57:36.343Z,17.10
2018-04-09T01:58:10.377Z,17.10
2018-04-09T01:58:43.642Z,17.10
2018-04-09T01:59:16.912Z,17.10
2018-04-09T01:59:50.184Z,17.10
2018-04-09T02:00:23.451Z,17.10
2018-04-09T02:00:57.473Z,17.10
2018-04-09T02:01:30.767Z,17.10
2018-04-09T02:02:04.029Z,17.10
2018-04-09T02:02:37.303Z,17.10
2018-04-09T02:03:10.555Z,17.10
2018-04-09T02:03:43.814Z,17.10
2018-04-09T02:04:17.084Z,17.10
2018-04-09T02:04:50.362Z,17.10
2018-04-09T02:05:23.630Z,17.10
2018-04-09T02:05:56.899Z,17.10
2018-04-09T02:06:30.171Z,17.10
2018-04-09T02:07:03.433Z,17.10
2018-04-09T02:07:37.471Z,17.10
2018-04-09T02:08:10.749Z,17.00
2018-04-09T02:08:44.008Z,17.10
2018-04-09T02:09:17.267Z,17.10
2018-04-09T02:09:50.541Z,17.10
2018-04-09T02:10:23.790Z,17.10
2018-04-09T02:10:57.049Z,17.10
2018-04-09T02:11:30.332Z,17.10
2018-04-09T02:12:03.613Z,17.10
2018-04-09T02:12:36.896Z,17.00
2018-04-09T02:13:10.237Z,17.10
2018-04-09T02:13:44.259Z,17.10
2018-04-09T02:14:17.518Z,17.10
2018-04-09T02:14:51.534Z,17.10
2018-04-09T02:15:24.814Z,17.10
2018-04-09T02:15:58.085Z,17.10
2018-04-09T02:16:31.343Z,17.00
2018-04-09T02:17:05.390Z,17.10
2018-04-09T02:17:38.654Z,17.00
2018-04-09T02:18:11.918Z,17.00
2018-04-09T02:18:45.949Z,17.00
2018-04-09T02:19:19.233Z,17.00
2018-04-09T02:19:52.486Z,17.10
2018-04-09T02:20:25.766Z,17.00
2018-04-09T02:20:59.025Z,17.00
2018-04-09T02:21:33.066Z,17.00
2018-04-09T02:22:06.359Z,17.00
2018-04-09T02:22:39.630Z,17.00
2018-04-09T02:23:12.893Z,17.00
2018-04-09T02:23:46.155Z,17.00
2018-04-09T02:24:19.409Z,17.00
2018-04-09T02:24:52.674Z,17.00
2018-04-09T02:25:25.945Z,17.00
2018-04-09T02:25:59.215Z,17.00
2018-04-09T02:26:32.467Z,17.00
2018-04-09T02:27:05.845Z,17.00
2018-04-09T02:27:39.106Z,17.00
2018-04-09T02:28:13.124Z,17.00
2018-04-09T02:28:46.386Z,17.00
2018-04-09T02:29:20.413Z,17.00
2018-04-09T02:29:53.673Z,17.00
2018-04-09T02:30:26.953Z,17.00
2018-04-09T02:31:00.209Z,17.00
2018-04-09T02:31:33.472Z,16.90
2018-04-09T02:32:06.763Z,17.00
2018-04-09T02:32:40.048Z,17.00
2018-04-09T02:33:13.318Z,17.00
2018-04-09T02:33:46.593Z,17.00
2018-04-09T02:34:19.873Z,16.90
2018-04-09T02:34:53.123Z,16.90
2018-04-09T02:35:26.421Z,17.00
2018-04-09T02:35:59.680Z,16.90
2018-04-09T02:36:32.947Z,16.90
2018-04-09T02:37:06.213Z,16.90
2018-04-09T02:37:39.493Z,16.90
2018-04-09T02:38:13.023Z,16.90
2018-04-09T02:38:46.298Z,16.90
2018-04-09T02:39:19.555Z,16.90
2018-04-09T02:39:52.835Z,17.00
2018-04-09T02:40:26.081Z,17.00
2018-04-09T02:40:59.343Z,17.00
2018-04-09T02:41:32.610Z,17.00
2018-04-09T02:42:05.875Z,17.00
2018-04-09T02:42:39.166Z,17.00
2018-04-09T02:43:12.427Z,17.00
2018-04-09T02:43:45.682Z,17.00
2018-04-09T02:44:18.956Z,17.00
2018-04-09T02:44:52.218Z,17.00
2018-04-09T02:45:26.254Z,17.00
2018-04-09T02:45:59.522Z,17.00
2018-04-09T02:46:32.791Z,17.00
2018-04-09T02:47:06.826Z,17.00
2018-04-09T02:47:40.179Z,17.00
2018-04-09T02:48:13.445Z,17.00
2018-04-09T02:48:47.478Z,17.00
2018-04-09T02:49:20.728Z,16.90
2018-04-09T02:49:54.004Z,16.90
2018-04-09T02:50:27.298Z,16.90
2018-04-09T02:51:01.319Z,17.00
2018-04-09T02:51:34.582Z,16.90
2018-04-09T02:52:07.848Z,16.90
2018-04-09T02:52:41.905Z,16.90
2018-04-09T02:53:15.153Z,16.90
2018-04-09T02:53:48.418Z,17.00
2018-04-09T02:54:21.683Z,17.00
2018-04-09T02:54:54.953Z,16.90
2018-04-09T02:55:28.996Z,16.90
2018-04-09T02:56:02.258Z,16.90
2018-04-09T02:56:35.519Z,16.90
2018-04-09T02:57:09.541Z,16.90
2018-04-09T02:57:42.810Z,16.90
2018-04-09T02:58:16.077Z,16.90
2018-04-09T02:58:50.110Z,16.90
2018-04-09T02:59:23.362Z,16.90
2018-04-09T02:59:56.630Z,16.90
2018-04-09T03:00:30.658Z,16.90
2018-04-09T03:01:03.922Z,16.90
2018-04-09T03:01:37.195Z,16.90
2018-04-09T03:02:10.466Z,16.90
2018-04-09T03:02:44.510Z,16.90
2018-04-09T03:03:17.785Z,16.90
2018-04-09T03:03:51.061Z,16.90
2018-04-09T03:04:24.335Z,16.90
2018-04-09T03:04:57.602Z,16.90
2018-04-09T03:05:30.872Z,16.90
2018-04-09T03:06:04.895Z,16.90
2018-04-09T03:06:38.277Z,16.90
2018-04-09T03:07:11.534Z,17.00
2018-04-09T03:07:44.806Z,16.90
2018-04-09T03:08:18.830Z,16.90
2018-04-09T03:08:52.103Z,16.90
2018-04-09T03:09:25.441Z,16.90
2018-04-09T03:09:58.638Z,16.90
2018-04-09T03:10:32.673Z,16.90
2018-04-09T03:11:06.705Z,16.90
2018-04-09T03:11:40.005Z,16.90
2018-04-09T03:12:13.305Z,16.90
2018-04-09T03:12:47.347Z,16.90
2018-04-09T03:13:20.626Z,16.90
2018-04-09T03:13:53.894Z,16.90
2018-04-09T03:14:27.149Z,16.90
2018-04-09T03:15:00.425Z,16.90
2018-04-09T03:15:33.699Z,17.00
2018-04-09T03:16:06.960Z,16.90
2018-04-09T03:16:41.218Z,16.90
2018-04-09T03:17:14.491Z,16.90
2018-04-09T03:17:47.772Z,16.90
2018-04-09T03:18:21.139Z,16.90
2018-04-09T03:18:54.407Z,16.90
2018-04-09T03:19:27.680Z,16.90
2018-04-09T03:20:01.714Z,16.90
2018-04-09T03:20:35.223Z,16.80
2018-04-09T03:21:08.480Z,16.80
2018-04-09T03:21:41.749Z,16.80
2018-04-09T03:22:15.030Z,16.80
2018-04-09T03:22:48.297Z,16.80
2018-04-09T03:23:21.561Z,16.80
2018-04-09T03:23:55.594Z,16.80
2018-04-09T03:24:28.849Z,16.80
2018-04-09T03:25:02.119Z,16.80
2018-04-09T03:25:36.162Z,16.90
2018-04-09T03:26:09.434Z,16.90
2018-04-09T03:26:42.691Z,16.90
2018-04-09T03:27:16.082Z,16.90
2018-04-09T03:27:49.343Z,16.90
2018-04-09T03:28:22.617Z,16.90
2018-04-09T03:28:56.638Z,16.90
2018-04-09T03:29:30.175Z,16.90
2018-04-09T03:30:03.447Z,16.90
2018-04-09T03:30:36.733Z,16.90
2018-04-09T03:31:09.975Z,16.90
2018-04-09T03:31:43.237Z,16.90
2018-04-09T03:32:16.501Z,16.80
2018-04-09T03:32:50.521Z,16.80
2018-04-09T03:33:23.802Z,16.70
2018-04-09T03:33:57.110Z,16.80
2018-04-09T03:34:30.350Z,16.80
2018-04-09T03:35:03.634Z,16.80
2018-04-09T03:35:36.903Z,16.80
2018-04-09T03:36:10.170Z,16.80
2018-04-09T03:36:44.201Z,16.80
2018-04-09T03:37:17.474Z,16.80
2018-04-09T03:37:50.742Z,16.80
2018-04-09T03:38:24.795Z,16.90
2018-04-09T03:38:58.061Z,16.90
2018-04-09T03:39:31.328Z,16.90
2018-04-09T03:40:04.602Z,16.80
2018-04-09T03:40:37.858Z,16.80
2018-04-09T03:41:11.890Z,16.80
2018-04-09T03:41:45.759Z,16.80
2018-04-09T03:42:19.034Z,16.80
2018-04-09T03:42:53.069Z,16.80
2018-04-09T03:43:26.349Z,16.70
2018-04-09T03:43:59.628Z,16.80
2018-04-09T03:44:32.886Z,16.80
2018-04-09T03:45:06.145Z,16.70
2018-04-09T03:45:40.182Z,16.80
2018-04-09T03:46:13.433Z,16.80
2018-04-09T03:46:46.694Z,16.80
2018-04-09T03:47:20.726Z,16.70
2018-04-09T03:47:53.989Z,16.60
2018-04-09T03:48:28.056Z,16.60
2018-04-09T03:49:01.310Z,16.60
2018-04-09T03:49:34.593Z,16.70
2018-04-09T03:50:07.860Z,16.60
2018-04-09T03:50:41.129Z,16.70
2018-04-09T03:51:14.405Z,16.70
2018-04-09T03:51:47.778Z,16.70
2018-04-09T03:52:21.041Z,16.70
2018-04-09T03:52:54.302Z,16.70
2018-04-09T03:53:27.574Z,16.70
2018-04-09T03:54:00.853Z,16.70
2018-04-09T03:54:34.175Z,16.70
2018-04-09T03:55:07.444Z,16.70
2018-04-09T03:55:41.466Z,16.60
2018-04-09T03:56:15.495Z,16.60
2018-04-09T03:56:48.766Z,16.60
2018-04-09T03:57:22.034Z,16.60
2018-04-09T03:57:55.315Z,16.60
2018-04-09T03:58:28.610Z,16.50
2018-04-09T03:59:01.874Z,16.50
2018-04-09T03:59:35.140Z,16.50
2018-04-09T04:00:08.403Z,16.50
2018-04-09T04:00:41.661Z,16.60
2018-04-09T04:01:14.947Z,16.60
2018-04-09T04:01:48.985Z,16.50
2018-04-09T04:02:22.256Z,16.50
2018-04-09T04:02:55.526Z,16.60
2018-04-09T04:03:28.798Z,16.60
2018-04-09T04:04:02.838Z,16.50
2018-04-09T04:04:36.118Z,16.50
2018-04-09T04:05:09.382Z,16.50
2018-04-09T04:05:42.659Z,16.50
2018-04-09T04:06:15.932Z,16.50
2018-04-09T04:06:49.204Z,16.50
2018-04-09T04:07:22.457Z,16.50
2018-04-09T04:07:55.724Z,16.50
2018-04-09T04:08:28.989Z,16.50
2018-04-09T04:09:02.297Z,16.50
2018-04-09T04:09:35.560Z,16.50
2018-04-09T04:10:08.830Z,16.50
2018-04-09T04:10:42.110Z,16.50
2018-04-09T04:11:15.373Z,16.50
2018-04-09T04:11:48.638Z,16.50
2018-04-09T04:12:21.890Z,16.40
2018-04-09T04:12:55.934Z,16.50
2018-04-09T04:13:29.195Z,16.40
2018-04-09T04:14:02.475Z,16.40
2018-04-09T04:14:35.741Z,16.50
2018-04-09T04:15:09.001Z,16.50
2018-04-09T04:17:02.536Z,16.50
2018-04-09T04:17:48.549Z,16.40
2018-04-09T04:18:34.353Z,16.40
2018-04-09T04:19:19.582Z,16.40
2018-04-09T04:20:04.781Z,16.40
2018-04-09T04:20:49.846Z,16.50
2018-04-09T04:21:34.979Z,16.50
2018-04-09T04:22:08.274Z,16.50
2018-04-09T04:22:41.544Z,16.50
2018-04-09T04:23:14.810Z,16.40
2018-04-09T04:23:48.072Z,16.40
2018-04-09T04:24:21.347Z,16.40
2018-04-09T04:24:54.608Z,16.40
2018-04-09T04:25:27.861Z,16.40
2018-04-09T04:26:01.129Z,16.40
2018-04-09T04:26:34.398Z,16.40
2018-04-09T04:27:07.669Z,16.40
2018-04-09T04:27:40.949Z,16.50
2018-04-09T04:28:14.218Z,16.40
2018-04-09T04:28:48.238Z,16.50
2018-04-09T04:29:21.507Z,16.50
2018-04-09T04:29:54.770Z,16.50
2018-04-09T04:30:28.793Z,16.50
2018-04-09T04:31:02.054Z,16.50
2018-04-09T04:31:35.349Z,16.50
2018-04-09T04:32:08.640Z,16.50
2018-04-09T04:32:41.914Z,16.50
2018-04-09T04:33:15.164Z,16.50
2018-04-09T04:33:48.455Z,16.50
2018-04-09T04:34:22.490Z,16.40
2018-04-09T04:34:55.753Z,16.40
2018-04-09T04:35:29.015Z,16.50
2018-04-09T04:36:03.053Z,16.50
2018-04-09T04:36:36.314Z,16.40
2018-04-09T04:37:09.573Z,16.50
2018-04-09T04:37:43.607Z,16.40
2018-04-09T04:38:16.867Z,16.40
2018-04-09T04:38:50.141Z,16.50
2018-04-09T04:39:23.417Z,16.50
2018-04-09T04:39:56.694Z,16.40
2018-04-09T04:40:29.960Z,16.50
2018-04-09T04:41:03.242Z,16.40
2018-04-09T04:41:37.276Z,16.50
2018-04-09T04:42:10.543Z,16.50
2018-04-09T04:42:43.801Z,16.50
2018-04-09T04:43:17.823Z,16.50
2018-04-09T04:43:51.089Z,16.50
2018-04-09T04:44:25.113Z,16.50
2018-04-09T04:44:58.494Z,16.50
2018-04-09T04:45:31.757Z,16.50
2018-04-09T04:46:05.019Z,16.40
2018-04-09T04:46:38.285Z,16.50
2018-04-09T04:47:11.549Z,16.50
2018-04-09T04:47:44.825Z,16.50
2018-04-09T04:48:18.094Z,16.50
2018-04-09T04:48:51.349Z,16.50
2018-04-09T04:49:24.620Z,16.50
2018-04-09T04:49:57.905Z,16.60
2018-04-09T04:50:31.166Z,16.50
2018-04-09T04:51:04.461Z,16.50
2018-04-09T04:51:37.727Z,16.50
2018-04-09T04:52:11.766Z,16.50
2018-04-09T04:52:45.033Z,16.50
2018-04-09T04:53:18.282Z,16.50
2018-04-09T04:53:52.309Z,16.50
2018-04-09T04:54:25.564Z,16.50
2018-04-09T04:54:58.842Z,16.50
2018-04-09T04:55:32.863Z,16.50
2018-04-09T04:56:06.122Z,16.40
2018-04-09T04:56:39.385Z,16.50
2018-04-09T04:57:13.406Z,16.50
2018-04-09T04:57:46.674Z,16.40
2018-04-09T04:58:19.958Z,16.40
2018-04-09T04:58:53.998Z,16.40
2018-04-09T04:59:27.277Z,16.40
2018-04-09T05:00:00.617Z,16.40
2018-04-09T05:00:34.619Z,16.40
2018-04-09T05:01:07.877Z,16.40
2018-04-09T05:01:41.917Z,16.30
2018-04-09T05:02:15.173Z,16.30
2018-04-09T05:02:48.438Z,16.40
2018-04-09T05:03:22.495Z,16.40
2018-04-09T05:03:55.814Z,16.40
2018-04-09T05:04:29.029Z,16.40
2018-04-09T05:05:02.309Z,16.40
2018-04-09T05:05:35.573Z,16.40
2018-04-09T05:06:08.850Z,16.40
2018-04-09T05:06:42.348Z,16.30
2018-04-09T05:07:15.623Z,16.30
2018-04-09T05:07:48.886Z,16.30
2018-04-09T05:08:22.903Z,16.40
2018-04-09T05:08:56.166Z,16.30
2018-04-09T05:09:29.422Z,16.40
2018-04-09T05:10:02.704Z,16.40
2018-04-09T05:10:35.975Z,16.40
2018-04-09T05:11:09.261Z,16.40
2018-04-09T05:11:42.547Z,16.40
2018-04-09T05:12:15.811Z,16.40
2018-04-09T05:12:49.068Z,16.40
2018-04-09T05:13:22.331Z,16.40
2018-04-09T05:13:55.594Z,16.40
2018-04-09T05:14:28.870Z,16.40
2018-04-09T05:15:02.135Z,16.40
2018-04-09T05:15:35.408Z,16.30
2018-04-09T05:16:08.690Z,16.30
2018-04-09T05:16:41.952Z,16.40
2018-04-09T05:17:15.215Z,16.30
2018-04-09T05:17:48.489Z,16.30
2018-04-09T05:18:21.737Z,16.30
2018-04-09T05:18:55.022Z,16.30
2018-04-09T05:19:28.282Z,16.30
2018-04-09T05:20:02.314Z,16.30
2018-04-09T05:20:35.693Z,16.30
2018-04-09T05:21:08.957Z,16.40
2018-04-09T05:21:42.223Z,16.40
2018-04-09T05:22:16.253Z,16.30
2018-04-09T05:22:49.527Z,16.30
2018-04-09T05:23:22.788Z,16.30
2018-04-09T05:23:56.814Z,16.30
2018-04-09T05:24:30.079Z,16.30
2018-04-09T05:25:03.358Z,16.30
2018-04-09T05:25:36.650Z,16.30
2018-04-09T05:26:09.907Z,16.30
2018-04-09T05:26:43.166Z,16.30
2018-04-09T05:27:16.444Z,16.40
2018-04-09T05:27:49.712Z,16.30
2018-04-09T05:28:23.017Z,16.30
2018-04-09T05:28:57.046Z,16.30
2018-04-09T05:29:30.294Z,16.30
2018-04-09T05:30:03.567Z,16.40
2018-04-09T05:30:37.610Z,16.40
2018-04-09T05:31:10.862Z,16.40
2018-04-09T05:31:44.129Z,16.40
2018-04-09T05:32:18.167Z,16.40
2018-04-09T05:32:51.437Z,16.40
2018-04-09T05:33:24.708Z,16.40
2018-04-09T05:33:57.978Z,16.40
2018-04-09T05:34:31.265Z,16.40
2018-04-09T05:35:04.549Z,16.40
2018-04-09T05:35:37.831Z,16.40
2018-04-09T05:36:11.869Z,16.40
2018-04-09T05:36:45.190Z,16.40
2018-04-09T05:37:19.221Z,16.40
2018-04-09T05:37:52.477Z,16.40
2018-04-09T05:38:25.954Z,16.40
2018-04-09T05:39:00.231Z,16.40
2018-04-09T05:39:34.994Z,16.40
2018-04-09T05:40:08.282Z,16.40
2018-04-09T05:40:41.570Z,16.40
2018-04-09T05:41:14.826Z,16.40
2018-04-09T05:41:48.095Z,16.40
2018-04-09T05:42:22.135Z,16.40
2018-04-09T05:42:55.384Z,16.40
2018-04-09T05:43:28.663Z,16.40
2018-04-09T05:44:02.695Z,16.40
2018-04-09T05:44:36.051Z,16.40
2018-04-09T05:45:09.321Z,16.40
2018-04-09T05:45:42.604Z,16.40
2018-04-09T05:46:15.855Z,16.40
2018-04-09T05:46:49.153Z,16.50
2018-04-09T05:47:23.197Z,16.50
2018-04-09T05:47:56.462Z,16.50
2018-04-09T05:48:29.723Z,16.50
2018-04-09T05:49:02.981Z,16.50
2018-04-09T05:49:36.258Z,16.50
2018-04-09T05:50:10.286Z,16.50
2018-04-09T05:50:43.688Z,16.50
2018-04-09T05:51:16.945Z,16.60
2018-04-09T05:51:50.214Z,16.60
2018-04-09T05:52:23.501Z,16.60
2018-04-09T05:52:56.759Z,16.60
2018-04-09T05:53:30.789Z,16.60
2018-04-09T05:54:04.159Z,16.60
2018-04-09T05:54:37.413Z,16.60
2018-04-09T05:55:10.682Z,16.60
2018-04-09T05:55:45.698Z,16.60
2018-04-09T05:56:18.953Z,16.60
2018-04-09T05:56:52.220Z,16.60
2018-04-09T05:57:25.492Z,16.70
2018-04-09T05:57:58.750Z,16.70
2018-04-09T05:58:32.798Z,16.70
2018-04-09T05:59:06.075Z,16.70
2018-04-09T05:59:39.325Z,16.70
2018-04-09T06:00:12.603Z,16.70
2018-04-09T06:00:45.986Z,16.70
2018-04-09T06:01:19.250Z,16.70
2018-04-09T06:01:52.520Z,16.70
2018-04-09T06:02:26.540Z,16.80
2018-04-09T06:03:00.578Z,16.80
2018-04-09T06:03:33.923Z,16.80
2018-04-09T06:04:07.190Z,16.80
2018-04-09T06:04:40.483Z,16.80
2018-04-09T06:05:13.731Z,16.80
2018-04-09T06:05:47.790Z,16.80
2018-04-09T06:06:21.265Z,16.90
2018-04-09T06:06:54.531Z,16.90
2018-04-09T06:07:28.573Z,16.90
2018-04-09T06:08:01.843Z,16.90
2018-04-09T06:08:35.140Z,16.90
2018-04-09T06:09:08.363Z,16.90
2018-04-09T06:09:41.630Z,16.80
2018-04-09T06:10:14.882Z,16.80
2018-04-09T06:10:48.155Z,16.90
2018-04-09T06:11:21.419Z,16.90
2018-04-09T06:11:54.675Z,16.90
2018-04-09T06:12:27.953Z,16.90
2018-04-09T06:13:01.235Z,16.90
2018-04-09T06:13:34.490Z,16.90
2018-04-09T06:14:07.757Z,17.00
2018-04-09T06:14:41.776Z,17.00
2018-04-09T06:15:15.042Z,16.90
2018-04-09T06:15:48.330Z,17.00
2018-04-09T06:16:21.611Z,17.00
2018-04-09T06:16:55.621Z,17.00
2018-04-09T06:17:28.882Z,17.00
2018-04-09T06:18:02.918Z,17.00
2018-04-09T06:18:36.194Z,17.00
2018-04-09T06:19:09.478Z,17.00
2018-04-09T06:19:42.729Z,17.00
2018-04-09T06:20:15.999Z,17.00
2018-04-09T06:20:50.047Z,17.00
2018-04-09T06:21:23.368Z,17.00
2018-04-09T06:21:56.608Z,17.00
2018-04-09T06:22:29.874Z,17.00
2018-04-09T06:23:03.141Z,17.00
2018-04-09T06:23:36.418Z,17.00
2018-04-09T06:24:09.681Z,17.00
2018-04-09T06:24:43.706Z,17.10
2018-04-09T06:25:16.979Z,17.10
2018-04-09T06:25:50.242Z,17.10
2018-04-09T06:26:24.283Z,17.10
2018-04-09T06:26:57.614Z,17.10
2018-04-09T06:27:31.638Z,17.10
2018-04-09T06:28:04.901Z,17.10
2018-04-09T06:28:38.160Z,17.10
2018-04-09T06:29:12.193Z,17.10
2018-04-09T06:29:45.465Z,17.10
2018-04-09T06:30:18.726Z,17.20
2018-04-09T06:30:52.754Z,17.20
2018-04-09T06:31:26.134Z,17.20
2018-04-09T06:31:59.418Z,17.20
2018-04-09T06:32:32.679Z,17.20
2018-04-09T06:33:05.937Z,17.30
2018-04-09T06:33:39.210Z,17.30
2018-04-09T06:34:12.472Z,17.30
2018-04-09T06:34:45.738Z,17.30
2018-04-09T06:35:19.002Z,17.30
2018-04-09T06:35:52.263Z,17.30
2018-04-09T06:36:25.542Z,17.30
2018-04-09T06:36:58.814Z,17.30
2018-04-09T06:37:32.093Z,17.30
2018-04-09T06:38:05.354Z,17.30
2018-04-09T06:38:38.625Z,17.30
2018-04-09T06:39:11.913Z,17.30
2018-04-09T06:39:45.197Z,17.40
2018-04-09T06:40:19.302Z,17.40
2018-04-09T06:40:52.471Z,17.40
2018-04-09T06:41:25.781Z,17.40
2018-04-09T06:41:59.032Z,17.40
2018-04-09T06:42:32.310Z,17.40
2018-04-09T06:43:05.569Z,17.40
2018-04-09T06:43:38.851Z,17.40
2018-04-09T06:44:12.862Z,17.40
2018-04-09T06:44:46.142Z,17.40
2018-04-09T06:45:19.393Z,17.40
2018-04-09T06:45:52.661Z,17.50
2018-04-09T06:46:25.936Z,17.50
2018-04-09T06:46:59.210Z,17.50
2018-04-09T06:47:32.485Z,17.50
2018-04-09T06:48:05.760Z,17.60
2018-04-09T06:48:39.035Z,17.60
2018-04-09T06:49:12.308Z,17.60
2018-04-09T06:49:46.337Z,17.60
2018-04-09T06:50:19.593Z,17.50
2018-04-09T06:50:52.881Z,17.60
2018-04-09T06:51:26.134Z,17.60
2018-04-09T06:51:59.408Z,17.70
2018-04-09T06:52:33.433Z,17.70
2018-04-09T06:53:06.708Z,17.70
2018-04-09T06:53:40.731Z,17.70
2018-04-09T06:54:14.012Z,17.70
2018-04-09T06:54:47.350Z,17.70
2018-04-09T06:55:21.438Z,17.80
2018-04-09T06:55:54.709Z,17.70
2018-04-09T06:56:27.969Z,17.70
2018-04-09T06:57:01.270Z,17.70
2018-04-09T06:57:34.539Z,17.80
2018-04-09T06:58:07.802Z,17.80
2018-04-09T06:58:41.074Z,17.80
2018-04-09T06:59:14.341Z,17.80
2018-04-09T06:59:47.621Z,17.80
2018-04-09T07:00:20.882Z,17.80
2018-04-09T07:00:54.157Z,17.80
2018-04-09T07:01:28.181Z,17.80
2018-04-09T07:02:01.462Z,17.80
2018-04-09T07:02:35.488Z,17.90
2018-04-09T07:03:08.759Z,17.90
2018-04-09T07:03:42.071Z,17.90
2018-04-09T07:04:15.282Z,17.90
2018-04-09T07:04:48.551Z,17.90
2018-04-09T07:05:21.862Z,17.90
2018-04-09T07:05:55.118Z,17.90
2018-04-09T07:06:28.398Z,18.00
2018-04-09T07:07:02.451Z,18.00
2018-04-09T07:07:35.718Z,18.00
2018-04-09T07:08:08.995Z,17.90
2018-04-09T07:08:42.253Z,18.00
2018-04-09T07:09:15.525Z,18.00
2018-04-09T07:09:48.772Z,18.00
2018-04-09T07:10:22.041Z,18.10
2018-04-09T07:10:55.311Z,18.10
2018-04-09T07:11:28.575Z,18.10
2018-04-09T07:12:01.844Z,18.10
2018-04-09T07:12:35.102Z,18.10
2018-04-09T07:13:08.382Z,18.10